createdAt,value
2022-12-03T00:01:46.393Z,8.10
2022-12-03T00:04:32.205Z,8.00
2022-12-03T00:07:18.096Z,8.00
2022-12-03T00:10:05.558Z,8.00
2022-12-03T00:12:51.092Z,8.00
2022-12-03T00:15:36.629Z,8.00
2022-12-03T00:18:22.205Z,8.00
2022-12-03T00:21:07.960Z,8.00
2022-12-03T00:23:53.777Z,8.00
2022-12-03T00:26:39.343Z,8.00
2022-12-03T00:29:25.222Z,8.00
2022-12-03T00:32:11.518Z,8.00
2022-12-03T00:34:57.581Z,8.00
2022-12-03T00:37:43.707Z,8.10
2022-12-03T00:40:30.476Z,8.10
2022-12-03T00:43:15.919Z,8.10
2022-12-03T00:46:02.754Z,8.10
2022-12-03T00:48:48.942Z,8.10
2022-12-03T00:51:34.460Z,8.10
2022-12-03T00:54:20.071Z,8.10
2022-12-03T00:57:06.176Z,8.10
2022-12-03T00:59:52.940Z,8.10
2022-12-03T01:02:38.760Z,8.10
2022-12-03T01:05:24.594Z,8.20
2022-12-03T01:08:10.375Z,8.20
2022-12-03T01:10:56.380Z,8.20
2022-12-03T01:13:42.227Z,8.10
2022-12-03T01:16:28.288Z,8.20
2022-12-03T01:19:16.447Z,8.10
2022-12-03T01:22:02.482Z,8.10
2022-12-03T01:24:48.131Z,8.00
2022-12-03T01:27:33.878Z,8.00
2022-12-03T01:30:20.539Z,8.10
2022-12-03T01:33:06.776Z,8.10
2022-12-03T01:35:52.496Z,8.10
2022-12-03T01:38:38.447Z,8.00
2022-12-03T01:41:25.064Z,8.10
2022-12-03T01:44:26.281Z,8.00
2022-12-03T01:47:18.441Z,8.00
2022-12-03T01:50:15.533Z,7.90
2022-12-03T01:53:03.029Z,8.00
2022-12-03T01:55:49.648Z,8.00
2022-12-03T01:58:35.594Z,8.00
2022-12-03T02:01:21.521Z,8.00
2022-12-03T02:04:13.218Z,7.80
2022-12-03T02:07:29.902Z,7.90
2022-12-03T02:10:20.030Z,8.00
2022-12-03T02:13:10.674Z,8.10
2022-12-03T02:15:56.400Z,8.10
2022-12-03T02:18:42.975Z,8.10
2022-12-03T02:21:53.286Z,8.10
2022-12-03T02:24:47.428Z,8.10
2022-12-03T02:27:33.198Z,8.10
2022-12-03T02:30:21.119Z,8.10
2022-12-03T02:33:07.084Z,8.10
2022-12-03T02:35:53.856Z,8.10
2022-12-03T02:38:41.894Z,8.10
2022-12-03T02:41:46.531Z,8.10
2022-12-03T02:44:32.423Z,8.00
2022-12-03T02:47:21.264Z,8.00
2022-12-03T02:50:08.905Z,8.00
2022-12-03T02:52:57.509Z,8.00
2022-12-03T02:55:44.938Z,8.00
2022-12-03T02:58:34.261Z,8.00
2022-12-03T03:01:20.357Z,8.10
2022-12-03T03:04:08.023Z,8.10
2022-12-03T03:06:53.761Z,8.10
2022-12-03T03:09:39.701Z,8.10
2022-12-03T03:12:26.044Z,8.00
2022-12-03T03:15:13.102Z,8.00
2022-12-03T03:17:59.047Z,7.90
2022-12-03T03:20:45.051Z,7.90
2022-12-03T03:23:31.531Z,7.90
2022-12-03T03:26:18.136Z,7.90
2022-12-03T03:29:04.287Z,7.90
2022-12-03T03:31:50.770Z,7.90
2022-12-03T03:34:36.681Z,8.00
2022-12-03T03:37:24.055Z,7.90
2022-12-03T03:40:10.965Z,7.80
2022-12-03T03:42:57.672Z,7.80
2022-12-03T03:45:44.703Z,7.80
2022-12-03T03:48:34.050Z,7.80
2022-12-03T03:51:20.414Z,8.00
2022-12-03T03:54:07.113Z,8.00
2022-12-03T03:56:53.783Z,7.90
2022-12-03T03:59:40.171Z,7.90
2022-12-03T04:02:28.151Z,7.90
2022-12-03T04:05:20.535Z,7.90
2022-12-03T04:08:06.703Z,7.80
2022-12-03T04:11:11.866Z,7.80
2022-12-03T04:13:57.634Z,7.90
2022-12-03T04:16:43.465Z,7.90
2022-12-03T04:19:29.012Z,8.00
2022-12-03T04:22:32.847Z,8.00
2022-12-03T04:25:37.619Z,8.00
2022-12-03T04:28:42.028Z,7.90
2022-12-03T04:31:46.801Z,8.00
2022-12-03T04:34:51.859Z,8.00
2022-12-03T04:37:37.959Z,8.00
2022-12-03T04:40:42.926Z,8.00
2022-12-03T04:43:29.928Z,7.90
2022-12-03T04:46:16.048Z,7.90
2022-12-03T04:49:01.674Z,7.90
2022-12-03T04:51:48.063Z,8.00
2022-12-03T04:54:34.283Z,7.90
2022-12-03T04:57:20.174Z,7.90
2022-12-03T05:00:06.290Z,7.90
2022-12-03T05:02:52.574Z,8.00
2022-12-03T05:05:38.620Z,8.00
2022-12-03T05:08:24.646Z,8.00
2022-12-03T05:11:10.591Z,8.00
2022-12-03T05:13:56.775Z,7.90
2022-12-03T05:16:43.063Z,7.90
2022-12-03T05:19:47.536Z,7.80
2022-12-03T05:22:33.221Z,7.80
2022-12-03T05:25:18.766Z,7.80
2022-12-03T05:28:04.803Z,7.80
2022-12-03T05:30:51.172Z,7.80
2022-12-03T05:33:42.466Z,7.80
2022-12-03T05:36:30.311Z,7.80
2022-12-03T05:39:16.979Z,7.90
2022-12-03T05:42:21.971Z,7.80
2022-12-03T05:45:08.155Z,7.80
2022-12-03T05:47:55.051Z,7.80
2022-12-03T05:50:43.798Z,7.80
2022-12-03T05:53:35.481Z,7.90
2022-12-03T05:56:20.920Z,7.90
2022-12-03T05:59:06.764Z,7.90
2022-12-03T06:01:52.925Z,7.80
2022-12-03T06:04:39.012Z,7.90
2022-12-03T06:07:24.719Z,7.80
2022-12-03T06:10:12.963Z,7.90
2022-12-03T06:12:58.600Z,8.00
2022-12-03T06:15:44.925Z,7.90
2022-12-03T06:18:32.092Z,7.80
2022-12-03T06:21:18.715Z,7.90
2022-12-03T06:24:05.074Z,7.90
2022-12-03T06:26:50.947Z,7.90
2022-12-03T06:29:36.802Z,7.80
2022-12-03T06:32:23.123Z,7.90
2022-12-03T06:35:09.784Z,7.90
2022-12-03T06:37:57.535Z,7.90
2022-12-03T06:40:43.948Z,7.90
2022-12-03T06:43:31.053Z,7.90
2022-12-03T06:46:16.823Z,8.00
2022-12-03T06:49:03.494Z,7.90
2022-12-03T06:51:49.024Z,7.80
2022-12-03T06:54:34.527Z,7.90
2022-12-03T06:57:20.028Z,7.80
2022-12-03T07:00:08.759Z,7.80
2022-12-03T07:02:55.013Z,7.70
2022-12-03T07:05:40.516Z,7.70
2022-12-03T07:08:26.427Z,7.80
2022-12-03T07:11:31.073Z,7.90
2022-12-03T07:14:16.894Z,7.90
2022-12-03T07:17:02.648Z,7.80
2022-12-03T07:19:48.868Z,7.80
2022-12-03T07:22:34.825Z,7.90
2022-12-03T07:25:23.415Z,7.90
2022-12-03T07:28:09.316Z,7.90
2022-12-03T07:30:55.153Z,7.90
2022-12-03T07:33:40.961Z,7.90
2022-12-03T07:36:26.357Z,7.90
2022-12-03T07:39:13.560Z,7.90
2022-12-03T07:41:59.363Z,7.90
2022-12-03T07:44:45.080Z,8.00
2022-12-03T07:47:30.887Z,7.90
2022-12-03T07:50:16.882Z,8.00
2022-12-03T07:53:03.066Z,7.90
2022-12-03T07:55:49.204Z,7.90
2022-12-03T07:58:35.024Z,8.00
2022-12-03T08:01:21.006Z,7.90
2022-12-03T08:04:06.702Z,8.00
2022-12-03T08:06:52.698Z,7.90
2022-12-03T08:09:40.912Z,7.90
2022-12-03T08:12:40.136Z,8.00
2022-12-03T08:15:31.170Z,8.00
2022-12-03T08:18:22.059Z,8.00
2022-12-03T08:21:16.888Z,8.00
2022-12-03T08:24:16.178Z,8.00
2022-12-03T08:27:02.723Z,8.00
2022-12-03T08:29:48.736Z,8.00
2022-12-03T08:32:35.024Z,8.00
2022-12-03T08:35:27.530Z,8.00
2022-12-03T08:38:13.524Z,8.00
2022-12-03T08:40:59.597Z,8.00
2022-12-03T08:43:46.424Z,8.00
2022-12-03T08:46:31.980Z,8.00
2022-12-03T08:49:20.581Z,8.10
2022-12-03T08:52:18.947Z,8.10
2022-12-03T08:55:46.119Z,8.10
2022-12-03T08:58:34.721Z,8.10
2022-12-03T09:01:39.087Z,8.10
2022-12-03T09:04:25.533Z,8.10
2022-12-03T09:07:11.331Z,8.20
2022-12-03T09:09:56.745Z,8.10
2022-12-03T09:12:46.137Z,8.10
2022-12-03T09:15:48.558Z,8.10
2022-12-03T09:18:35.033Z,8.20
2022-12-03T09:21:20.526Z,8.20
2022-12-03T09:24:06.820Z,8.20
2022-12-03T09:26:53.143Z,8.30
2022-12-03T09:29:38.847Z,8.20
2022-12-03T09:32:25.267Z,8.30
2022-12-03T09:35:11.143Z,8.30
2022-12-03T09:37:57.061Z,8.40
2022-12-03T09:40:42.660Z,8.40
2022-12-03T09:43:43.344Z,8.40
2022-12-03T09:46:37.589Z,8.50
2022-12-03T09:49:24.054Z,8.40
2022-12-03T09:52:17.482Z,8.40
2022-12-03T09:55:15.643Z,8.40
2022-12-03T09:58:01.416Z,8.40
2022-12-03T10:00:52.997Z,8.40
2022-12-03T10:03:42.060Z,8.40
2022-12-03T10:06:29.408Z,8.50
2022-12-03T10:09:21.568Z,8.50
2022-12-03T10:12:11.875Z,8.40
2022-12-03T10:15:02.220Z,8.50
2022-12-03T10:17:50.449Z,8.40
2022-12-03T10:20:36.152Z,8.50
2022-12-03T10:23:30.584Z,8.40
2022-12-03T10:26:17.160Z,8.50
2022-12-03T10:29:12.042Z,8.50
2022-12-03T10:32:00.352Z,8.50
2022-12-03T10:34:46.085Z,8.60
2022-12-03T10:37:32.688Z,8.50
2022-12-03T10:40:25.374Z,8.50
2022-12-03T10:43:30.435Z,8.50
2022-12-03T10:46:22.076Z,8.50
2022-12-03T10:49:19.444Z,8.50
2022-12-03T10:52:06.307Z,8.50
2022-12-03T10:54:52.384Z,8.50
2022-12-03T10:57:42.483Z,8.60
2022-12-03T11:00:31.549Z,8.70
2022-12-03T11:03:23.566Z,8.70
2022-12-03T11:06:18.589Z,8.60
2022-12-03T11:09:09.102Z,8.60
2022-12-03T11:11:55.742Z,8.70
2022-12-03T11:14:51.924Z,8.70
2022-12-03T11:17:51.444Z,8.70
2022-12-03T11:20:40.102Z,8.70
2022-12-03T11:23:58.823Z,8.70
2022-12-03T11:26:45.087Z,8.70
2022-12-03T11:29:58.837Z,8.70
2022-12-03T11:32:47.575Z,8.70
2022-12-03T11:35:57.350Z,8.60
2022-12-03T11:38:52.163Z,8.60
2022-12-03T11:41:38.510Z,8.70
2022-12-03T11:44:31.198Z,8.60
2022-12-03T11:47:18.056Z,8.60
2022-12-03T11:50:22.290Z,8.60
2022-12-03T11:53:11.579Z,8.60
2022-12-03T11:56:08.580Z,8.60
2022-12-03T11:59:03.398Z,8.60
2022-12-03T12:01:48.671Z,8.60
2022-12-03T12:04:37.884Z,8.60
2022-12-03T12:07:35.748Z,8.60
2022-12-03T12:10:42.529Z,8.60
2022-12-03T12:13:37.386Z,8.70
2022-12-03T12:16:58.383Z,8.70
2022-12-03T12:19:47.334Z,8.60
2022-12-03T12:22:35.528Z,8.70
2022-12-03T12:25:30.730Z,8.70
2022-12-03T12:28:16.898Z,8.70
2022-12-03T12:31:03.392Z,8.80
2022-12-03T12:33:49.216Z,8.80
2022-12-03T12:36:34.991Z,8.80
2022-12-03T12:39:21.784Z,8.80
2022-12-03T12:42:25.944Z,8.90
2022-12-03T12:45:18.390Z,8.90
2022-12-03T12:48:10.282Z,8.90
2022-12-03T12:51:12.019Z,8.80
2022-12-03T12:53:57.706Z,8.90
2022-12-03T12:56:45.446Z,8.90
2022-12-03T12:59:31.340Z,8.90
2022-12-03T13:02:26.430Z,8.90
2022-12-03T13:05:13.600Z,8.90
2022-12-03T13:07:59.503Z,8.80
2022-12-03T13:10:45.700Z,8.80
2022-12-03T13:13:44.340Z,8.80
2022-12-03T13:16:32.947Z,8.80
2022-12-03T13:19:26.012Z,8.70
2022-12-03T13:22:21.063Z,8.70
2022-12-03T13:25:57.348Z,8.70
2022-12-03T13:28:38.077Z,8.70
2022-12-03T13:31:28.552Z,8.60
2022-12-03T13:34:18.953Z,8.70
2022-12-03T13:37:14.049Z,8.70
2022-12-03T13:40:30.689Z,8.70
2022-12-03T13:43:20.039Z,8.70
2022-12-03T13:46:05.876Z,8.70
2022-12-03T13:48:52.141Z,8.70
2022-12-03T13:51:38.697Z,8.70
2022-12-03T13:54:29.031Z,8.60
2022-12-03T13:57:14.988Z,8.60
2022-12-03T14:00:00.971Z,8.60
2022-12-03T14:02:48.021Z,8.60
2022-12-03T14:05:34.364Z,8.60
2022-12-03T14:08:20.592Z,8.60
2022-12-03T14:11:07.159Z,8.40
2022-12-03T14:13:52.522Z,8.40
2022-12-03T14:16:38.618Z,8.50
2022-12-03T14:19:25.183Z,8.60
2022-12-03T14:22:11.049Z,8.40
2022-12-03T14:24:57.380Z,8.40
2022-12-03T14:27:43.309Z,8.40
2022-12-03T14:30:29.756Z,8.40
2022-12-03T14:33:16.581Z,8.40
2022-12-03T14:36:02.753Z,8.40
2022-12-03T14:38:48.603Z,8.40
2022-12-03T14:41:52.753Z,8.40
2022-12-03T14:44:38.758Z,8.40
2022-12-03T14:47:24.708Z,8.50
2022-12-03T14:50:14.144Z,8.50
2022-12-03T14:52:59.967Z,8.50
2022-12-03T14:55:48.067Z,8.40
2022-12-03T14:58:34.260Z,8.40
2022-12-03T15:01:20.001Z,8.40
2022-12-03T15:04:06.284Z,8.40
2022-12-03T15:06:52.269Z,8.40
2022-12-03T15:09:38.143Z,8.40
2022-12-03T15:12:24.544Z,8.40
2022-12-03T15:15:11.259Z,8.40
2022-12-03T15:17:56.956Z,8.40
2022-12-03T15:20:43.136Z,8.40
2022-12-03T15:23:29.411Z,8.40
2022-12-03T15:26:15.452Z,8.40
2022-12-03T15:29:00.968Z,8.40
2022-12-03T15:31:47.040Z,8.30
2022-12-03T15:34:32.611Z,8.40
2022-12-03T15:37:18.200Z,8.40
2022-12-03T15:40:05.018Z,8.40
2022-12-03T15:42:51.591Z,8.40
2022-12-03T15:45:38.259Z,8.40
2022-12-03T15:48:24.264Z,8.40
2022-12-03T15:51:12.648Z,8.40
2022-12-03T15:53:57.959Z,8.40
2022-12-03T15:56:44.101Z,8.50
2022-12-03T15:59:29.995Z,8.50
2022-12-03T16:02:15.676Z,8.40
2022-12-03T16:05:02.591Z,8.40
2022-12-03T16:07:48.600Z,8.50
2022-12-03T16:10:34.831Z,8.50
2022-12-03T16:13:22.762Z,8.50
2022-12-03T16:16:08.586Z,8.50
2022-12-03T16:18:54.964Z,8.50
2022-12-03T16:21:40.752Z,8.40
2022-12-03T16:24:27.715Z,8.40
2022-12-03T16:27:13.409Z,8.40
2022-12-03T16:29:59.120Z,8.50
2022-12-03T16:32:44.983Z,8.40
2022-12-03T16:35:30.851Z,8.40
2022-12-03T16:38:16.902Z,8.40
2022-12-03T16:41:03.273Z,8.40
2022-12-03T16:43:49.054Z,8.50
2022-12-03T16:46:35.268Z,8.40
2022-12-03T16:49:21.304Z,8.50
2022-12-03T16:52:07.735Z,8.50
2022-12-03T16:54:55.540Z,8.50
2022-12-03T16:57:41.709Z,8.50
2022-12-03T17:00:27.318Z,8.50
2022-12-03T17:03:13.498Z,8.40
2022-12-03T17:05:59.428Z,8.40
2022-12-03T17:08:49.638Z,8.40
2022-12-03T17:11:36.183Z,8.50
2022-12-03T17:14:21.691Z,8.50
2022-12-03T17:17:07.255Z,8.50
2022-12-03T17:19:53.987Z,8.50
2022-12-03T17:22:40.832Z,8.50
2022-12-03T17:25:27.721Z,8.40
2022-12-03T17:28:13.578Z,8.50
2022-12-03T17:30:59.853Z,8.50
2022-12-03T17:33:45.444Z,8.50
2022-12-03T17:36:31.364Z,8.50
2022-12-03T17:39:17.910Z,8.50
2022-12-03T17:42:04.282Z,8.50
2022-12-03T17:44:50.555Z,8.50
2022-12-03T17:47:36.751Z,8.50
2022-12-03T17:50:26.028Z,8.50
2022-12-03T17:53:12.702Z,8.50
2022-12-03T17:55:58.577Z,8.50
2022-12-03T17:58:44.756Z,8.50
2022-12-03T18:01:31.189Z,8.50
2022-12-03T18:04:17.097Z,8.50
2022-12-03T18:07:03.197Z,8.40
2022-12-03T18:09:48.735Z,8.40
2022-12-03T18:12:35.445Z,8.50
2022-12-03T18:15:21.683Z,8.50
2022-12-03T18:18:08.159Z,8.50
2022-12-03T18:20:54.159Z,8.40
2022-12-03T18:23:40.505Z,8.50
2022-12-03T18:26:27.136Z,8.50
2022-12-03T18:29:12.583Z,8.50
2022-12-03T18:31:58.656Z,8.50
2022-12-03T18:34:45.182Z,8.50
2022-12-03T18:37:33.024Z,8.50
2022-12-03T18:40:22.862Z,8.50
2022-12-03T18:43:13.713Z,8.50
2022-12-03T18:45:59.598Z,8.50
2022-12-03T18:48:48.369Z,8.50
2022-12-03T18:51:35.495Z,8.50
2022-12-03T18:54:21.387Z,8.50
2022-12-03T18:57:07.613Z,8.50
2022-12-03T18:59:56.869Z,8.50
2022-12-03T19:05:48.983Z,8.50
2022-12-03T19:08:35.459Z,8.40
2022-12-03T19:11:22.198Z,8.40
2022-12-03T19:14:10.921Z,8.40
2022-12-03T19:16:56.688Z,8.50
2022-12-03T19:19:42.489Z,8.50
2022-12-03T19:22:28.163Z,8.50
2022-12-03T19:25:13.803Z,8.50
2022-12-03T19:27:59.632Z,8.50
2022-12-03T19:30:46.342Z,8.50
2022-12-03T19:33:33.211Z,8.40
2022-12-03T19:36:24.870Z,8.40
2022-12-03T19:39:10.592Z,8.40
2022-12-03T19:41:56.876Z,8.50
2022-12-03T19:44:43.015Z,8.50
2022-12-03T19:47:29.560Z,8.40
2022-12-03T19:50:22.503Z,8.40
2022-12-03T19:53:08.785Z,8.40
2022-12-03T19:55:55.340Z,8.40
2022-12-03T19:58:42.814Z,8.40
2022-12-03T20:01:30.812Z,8.40
2022-12-03T20:04:17.266Z,8.30
2022-12-03T20:07:04.527Z,8.40
2022-12-03T20:09:52.062Z,8.40
2022-12-03T20:12:38.081Z,8.30
2022-12-03T20:15:23.685Z,8.20
2022-12-03T20:18:09.626Z,8.30
2022-12-03T20:21:00.104Z,8.40
2022-12-03T20:23:47.664Z,8.40
2022-12-03T20:26:33.453Z,8.40
2022-12-03T20:29:19.627Z,8.40
2022-12-03T20:32:07.004Z,8.40
2022-12-03T20:34:53.481Z,8.40
2022-12-03T20:37:39.571Z,8.40
2022-12-03T20:40:26.592Z,8.30
2022-12-03T20:43:12.197Z,8.30
2022-12-03T20:46:10.196Z,8.30
2022-12-03T20:48:56.856Z,8.30
2022-12-03T20:51:42.729Z,8.40
2022-12-03T20:54:28.806Z,8.40
2022-12-03T20:57:14.803Z,8.30
2022-12-03T21:00:00.788Z,8.30
2022-12-03T21:02:46.940Z,8.30
2022-12-03T21:05:32.949Z,8.30
2022-12-03T21:08:34.014Z,8.30
2022-12-03T21:11:27.124Z,8.30
2022-12-03T21:14:12.819Z,8.30
2022-12-03T21:17:08.504Z,8.30
2022-12-03T21:19:55.567Z,8.20
2022-12-03T21:22:41.226Z,8.20
2022-12-03T21:25:26.769Z,8.20
2022-12-03T21:28:12.615Z,8.30
2022-12-03T21:31:04.560Z,8.30
2022-12-03T21:33:51.079Z,8.20
2022-12-03T21:36:36.937Z,8.20
2022-12-03T21:39:22.575Z,8.10
2022-12-03T21:42:34.366Z,8.20
2022-12-03T21:45:15.155Z,8.20
2022-12-03T21:48:01.051Z,8.20
2022-12-03T21:50:57.079Z,8.30
2022-12-03T21:53:43.722Z,8.30
2022-12-03T21:56:31.952Z,8.30
2022-12-03T21:59:17.676Z,8.30
2022-12-03T22:02:03.530Z,8.20
2022-12-03T22:04:50.276Z,8.20
2022-12-03T22:07:37.578Z,8.20
2022-12-03T22:10:23.620Z,8.20
2022-12-03T22:13:09.942Z,8.20
2022-12-03T22:15:56.164Z,8.20
2022-12-03T22:18:42.268Z,8.20
2022-12-03T22:21:30.208Z,8.20
2022-12-03T22:24:16.200Z,8.30
2022-12-03T22:27:03.965Z,8.30
2022-12-03T22:29:49.443Z,8.30
2022-12-03T22:32:36.001Z,8.30
2022-12-03T22:35:22.086Z,8.30
2022-12-03T22:38:07.967Z,8.30
2022-12-03T22:40:53.985Z,8.20
2022-12-03T22:43:39.858Z,8.20
2022-12-03T22:46:25.787Z,8.30
2022-12-03T22:49:13.310Z,8.30
2022-12-03T22:51:59.039Z,8.20
2022-12-03T22:54:45.991Z,8.20
2022-12-03T22:57:32.017Z,8.30
2022-12-03T23:00:35.732Z,8.20
2022-12-03T23:03:22.160Z,8.20
2022-12-03T23:06:12.171Z,8.30
2022-12-03T23:08:59.131Z,8.30
2022-12-03T23:11:47.891Z,8.40
2022-12-03T23:14:34.377Z,8.40
2022-12-03T23:17:19.795Z,8.40
2022-12-03T23:20:06.251Z,8.40
2022-12-03T23:22:52.743Z,8.40
2022-12-03T23:25:38.846Z,8.50
2022-12-03T23:28:25.662Z,8.40
2022-12-03T23:31:19.385Z,8.40
2022-12-03T23:34:06.320Z,8.40
2022-12-03T23:36:52.063Z,8.40
2022-12-03T23:39:37.768Z,8.40
2022-12-03T23:42:23.749Z,8.40
2022-12-03T23:45:10.057Z,8.30
2022-12-03T23:47:58.314Z,8.30
2022-12-03T23:50:44.707Z,8.30
2022-12-03T23:53:30.647Z,8.40
2022-12-03T23:56:19.030Z,8.40
2022-12-03T23:59:04.854Z,8.40
